Time;durP1;ratioP1;P1;durP2;ratioP2;P2;SDS_P1;SDS_P2;PMS_P1;PMS_P2;Temp;Humidity;BMP_temperature;BMP_pressure;BME280_temperature;BME280_humidity;BME280_pressure;Samples;Min_cycle;Max_cycle;Signal;HPM_P1;HPM_P2
2023/08/01 00:01:54;;;;;;;1.37;0.90;;;21.80;99.90;;;;;;5037544;28;20189;-87
2023/08/01 00:04:29;;;;;;;1.03;0.90;;;21.80;99.90;;;;;;5025544;28;20216;-87
2023/08/01 00:06:57;;;;;;;0.80;0.80;;;21.80;99.90;;;;;;5034075;28;20682;-87
2023/08/01 00:09:38;;;;;;;0.93;0.90;;;21.80;99.90;;;;;;5057415;28;20269;-88
2023/08/01 00:12:17;;;;;;;1.63;0.97;;;21.80;99.90;;;;;;5031175;28;20190;-87
2023/08/01 00:14:42;;;;;;;1.10;0.80;;;21.80;99.90;;;;;;5056935;28;20202;-87
2023/08/01 00:17:11;;;;;;;0.60;0.60;;;21.80;99.90;;;;;;5029979;28;20185;-87
2023/08/01 00:19:37;;;;;;;1.30;0.70;;;21.80;99.90;;;;;;5026785;28;20441;-87
2023/08/01 00:22:21;;;;;;;0.70;0.70;;;21.80;99.90;;;;;;5031868;28;20493;-87
2023/08/01 00:24:52;;;;;;;0.87;0.80;;;21.80;99.90;;;;;;5024087;28;20289;-87
2023/08/01 00:27:18;;;;;;;0.73;0.73;;;21.80;99.90;;;;;;5030355;28;20543;-87
2023/08/01 00:29:55;;;;;;;0.73;0.67;;;21.80;99.90;;;;;;5024483;28;20234;-87
2023/08/01 00:32:29;;;;;;;0.80;0.80;;;21.80;99.90;;;;;;5029455;28;20172;-87
2023/08/01 00:34:59;;;;;;;0.70;0.70;;;21.80;99.90;;;;;;5028841;28;20211;-87
2023/08/01 00:37:28;;;;;;;1.23;0.80;;;21.80;99.90;;;;;;5033991;28;20192;-87
2023/08/01 00:39:53;;;;;;;0.80;0.70;;;21.80;99.90;;;;;;5031227;28;20191;-87
2023/08/01 00:42:29;;;;;;;0.87;0.70;;;21.80;99.90;;;;;;5038533;28;20195;-87
2023/08/01 00:44:57;;;;;;;1.17;0.77;;;21.70;99.90;;;;;;5030141;28;20215;-87
2023/08/01 00:47:23;;;;;;;1.07;0.63;;;21.80;99.90;;;;;;5048343;28;20176;-87
2023/08/01 00:50:15;;;;;;;1.13;0.80;;;21.80;99.90;;;;;;5060223;28;20267;-87
2023/08/01 00:52:49;;;;;;;0.67;0.67;;;21.80;99.90;;;;;;5026481;28;20188;-88
2023/08/01 00:55:35;;;;;;;0.60;0.60;;;21.80;99.90;;;;;;5048088;28;20177;-88
2023/08/01 00:58:10;;;;;;;0.93;0.67;;;21.70;99.90;;;;;;5031466;28;20245;-87
2023/08/01 01:00:42;;;;;;;0.87;0.60;;;21.80;99.90;;;;;;5026767;28;20182;-87
2023/08/01 01:03:35;;;;;;;0.70;0.70;;;21.80;99.90;;;;;;5032923;28;20199;-87
2023/08/01 01:06:22;;;;;;;1.20;0.60;;;21.80;99.90;;;;;;5050147;28;20542;-87
2023/08/01 01:09:20;;;;;;;1.30;0.70;;;21.80;99.90;;;;;;5042812;28;20187;-87
2023/08/01 01:11:48;;;;;;;0.60;0.60;;;21.80;99.90;;;;;;5046055;28;20246;-87
2023/08/01 01:14:23;;;;;;;0.57;0.57;;;21.80;99.90;;;;;;5032668;28;20569;-87
2023/08/01 01:17:27;;;;;;;0.80;0.80;;;21.80;99.90;;;;;;5043163;28;20663;-87
2023/08/01 01:20:24;;;;;;;0.60;0.60;;;21.80;99.90;;;;;;4970503;28;20182;-87
2023/08/01 01:22:57;;;;;;;0.65;0.60;;;21.70;99.90;;;;;;4918208;29;20414;-87
2023/08/01 01:25:51;;;;;;;1.27;0.87;;;21.70;99.90;;;;;;4914660;29;20279;-87
2023/08/01 01:28:20;;;;;;;1.17;0.80;;;21.70;99.90;;;;;;4952098;29;20277;-87
2023/08/01 01:31:18;;;;;;;0.80;0.80;;;21.70;99.90;;;;;;4937787;29;20179;-87
2023/08/01 01:34:16;;;;;;;1.70;0.90;;;21.70;99.90;;;;;;4934514;29;20195;-87
2023/08/01 01:36:57;;;;;;;0.90;0.80;;;21.70;99.90;;;;;;4919947;29;20208;-87
2023/08/01 01:39:37;;;;;;;2.33;0.70;;;21.70;99.90;;;;;;4952939;29;20295;-87
2023/08/01 01:42:30;;;;;;;0.50;0.50;;;21.70;99.90;;;;;;4974084;28;20241;-88
2023/08/01 01:45:26;;;;;;;0.80;0.80;;;21.70;99.90;;;;;;4976230;28;20244;-87
2023/08/01 01:47:55;;;;;;;0.70;0.70;;;21.70;99.90;;;;;;4990695;28;20450;-87
2023/08/01 01:50:29;;;;;;;0.80;0.80;;;21.70;99.90;;;;;;4979793;28;20233;-87
2023/08/01 01:52:58;;;;;;;0.70;0.70;;;21.70;99.90;;;;;;4966481;28;20560;-87
2023/08/01 01:55:39;;;;;;;0.90;0.80;;;21.70;99.90;;;;;;4978093;28;20837;-87
2023/08/01 01:58:20;;;;;;;0.80;0.80;;;21.70;99.90;;;;;;4992763;28;20225;-87
2023/08/01 02:00:55;;;;;;;0.80;0.80;;;21.70;99.90;;;;;;5031833;28;20180;-87
2023/08/01 02:03:30;;;;;;;0.60;0.60;;;21.70;99.90;;;;;;5032821;28;20322;-87
2023/08/01 02:06:05;;;;;;;0.77;0.77;;;21.80;99.90;;;;;;5035658;28;20569;-87
2023/08/01 02:08:31;;;;;;;0.87;0.80;;;21.70;99.90;;;;;;5032532;28;20176;-87
2023/08/01 02:11:15;;;;;;;0.80;0.80;;;21.70;99.90;;;;;;5048426;28;20261;-87
2023/08/01 02:13:47;;;;;;;1.03;0.80;;;21.70;99.90;;;;;;5023819;28;20195;-87
2023/08/01 02:19:38;;;;;;;0.90;0.90;;;21.70;99.90;;;;;;4992395;28;20190;-87
2023/08/01 02:22:04;;;;;;;0.70;0.70;;;21.70;99.90;;;;;;4992644;28;20441;-87
2023/08/01 02:24:57;;;;;;;1.80;0.83;;;21.70;99.90;;;;;;5036219;28;20615;-87
2023/08/01 02:27:38;;;;;;;0.80;0.80;;;21.70;99.90;;;;;;5026953;28;20173;-87
2023/08/01 02:30:16;;;;;;;0.70;0.70;;;21.70;99.90;;;;;;5029624;28;20171;-87
2023/08/01 02:32:44;;;;;;;0.80;0.80;;;21.70;99.90;;;;;;5030512;28;20176;-86
2023/08/01 02:35:47;;;;;;;0.80;0.80;;;21.70;99.90;;;;;;5047068;28;20635;-86
2023/08/01 02:38:18;;;;;;;1.30;1.00;;;21.60;99.90;;;;;;5030060;28;20184;-86
2023/08/01 02:40:47;;;;;;;0.73;0.73;;;21.60;99.90;;;;;;5043286;28;20179;-86
2023/08/01 02:43:19;;;;;;;0.80;0.80;;;21.60;99.90;;;;;;5024784;28;20173;-86
2023/08/01 02:45:53;;;;;;;0.90;0.90;;;21.60;99.90;;;;;;5032564;28;20249;-87
2023/08/01 02:48:32;;;;;;;0.80;0.80;;;21.60;99.90;;;;;;5044695;28;20432;-87
2023/08/01 02:51:10;;;;;;;1.13;0.90;;;21.70;99.90;;;;;;5035163;28;20453;-87
2023/08/01 02:53:53;;;;;;;0.80;0.80;;;21.60;99.90;;;;;;5027915;28;20433;-87
2023/08/01 02:59:21;;;;;;;1.57;1.10;;;21.60;99.90;;;;;;5048474;28;20263;-87
2023/08/01 03:01:50;;;;;;;1.03;0.87;;;21.70;99.90;;;;;;5029833;28;20175;-86
2023/08/01 03:04:16;;;;;;;1.00;0.90;;;21.70;99.90;;;;;;5020913;28;20219;-87
2023/08/01 03:06:47;;;;;;;0.87;0.80;;;21.60;99.90;;;;;;5046178;28;20308;-87
2023/08/01 03:09:57;;;;;;;1.00;0.90;;;21.60;99.90;;;;;;5032702;28;20186;-87
2023/08/01 03:12:25;;;;;;;1.23;0.80;;;21.60;99.90;;;;;;5030577;28;20198;-87
2023/08/01 03:14:51;;;;;;;1.10;1.00;;;21.60;99.90;;;;;;5028016;28;20180;-87
2023/08/01 03:17:23;;;;;;;1.03;0.93;;;21.60;99.90;;;;;;5032346;28;20237;-87
2023/08/01 03:19:54;;;;;;;1.37;0.93;;;21.60;99.90;;;;;;5027903;28;20186;-87
2023/08/01 03:22:20;;;;;;;1.07;0.93;;;21.60;99.90;;;;;;5031949;28;20295;-87
2023/08/01 03:25:07;;;;;;;1.03;1.00;;;21.60;99.90;;;;;;5028415;28;20564;-87
2023/08/01 03:27:50;;;;;;;1.23;0.90;;;21.60;99.90;;;;;;5045175;28;20215;-87
2023/08/01 03:30:35;;;;;;;1.10;1.00;;;21.60;99.90;;;;;;5058022;28;20219;-87
2023/08/01 03:33:19;;;;;;;1.33;1.00;;;21.60;99.90;;;;;;5030451;28;20569;-87
2023/08/01 03:35:44;;;;;;;1.30;1.00;;;21.60;99.90;;;;;;5027600;28;20262;-87
2023/08/01 03:38:22;;;;;;;1.37;1.00;;;21.60;99.90;;;;;;5030448;28;20295;-87
2023/08/01 03:40:51;;;;;;;1.10;1.00;;;21.60;99.90;;;;;;5044092;28;20198;-87
2023/08/01 03:43:25;;;;;;;1.40;1.07;;;21.60;99.90;;;;;;5035911;28;20208;-87
2023/08/01 03:46:03;;;;;;;0.97;0.90;;;21.60;99.90;;;;;;5031241;28;20175;-87
2023/08/01 03:48:57;;;;;;;1.20;1.10;;;21.60;99.90;;;;;;5047374;28;20225;-87
2023/08/01 03:51:38;;;;;;;1.50;1.00;;;21.60;99.90;;;;;;5025505;28;20176;-87
2023/08/01 03:54:06;;;;;;;1.20;1.10;;;21.60;99.90;;;;;;5025131;28;20575;-87
2023/08/01 03:56:35;;;;;;;1.30;1.10;;;21.60;99.90;;;;;;5025187;28;20341;-87
2023/08/01 03:59:15;;;;;;;2.10;1.43;;;21.70;99.90;;;;;;5027172;28;20181;-87
2023/08/01 04:02:11;;;;;;;2.30;1.13;;;21.60;99.90;;;;;;5044168;28;20185;-87
2023/08/01 04:05:12;;;;;;;2.70;1.37;;;21.60;99.90;;;;;;5026618;28;20870;-87
2023/08/01 04:08:02;;;;;;;1.70;1.60;;;21.60;99.90;;;;;;5017259;28;20422;-86
2023/08/01 04:10:36;;;;;;;1.33;1.23;;;21.50;99.90;;;;;;5044445;28;20206;-86
2023/08/01 04:13:22;;;;;;;2.43;1.40;;;21.60;99.90;;;;;;5039218;28;20210;-87
2023/08/01 04:15:54;;;;;;;1.90;1.60;;;21.60;99.90;;;;;;5030869;28;20270;-87
2023/08/01 04:18:20;;;;;;;1.43;1.33;;;21.60;99.90;;;;;;5026813;28;20192;-86
2023/08/01 04:20:51;;;;;;;1.37;1.20;;;21.50;99.90;;;;;;5032690;28;20175;-86
2023/08/01 04:23:17;;;;;;;1.40;1.30;;;21.50;99.90;;;;;;5045529;28;20175;-87
2023/08/01 04:25:42;;;;;;;2.23;1.30;;;21.50;99.90;;;;;;5037375;28;20230;-86
2023/08/01 04:28:09;;;;;;;2.73;1.60;;;21.50;99.90;;;;;;5027389;28;20463;-86
2023/08/01 04:30:38;;;;;;;2.30;1.60;;;21.50;99.90;;;;;;5045527;28;20510;-86
2023/08/01 04:33:09;;;;;;;1.77;1.67;;;21.60;99.90;;;;;;5029786;28;20173;-86
2023/08/01 04:35:38;;;;;;;2.23;1.57;;;21.60;99.90;;;;;;5038470;28;20427;-86
2023/08/01 04:38:12;;;;;;;2.50;1.60;;;21.60;99.90;;;;;;5025768;28;20207;-86
2023/08/01 04:40:40;;;;;;;2.97;1.90;;;21.60;99.90;;;;;;5030383;28;20738;-86
2023/08/01 04:43:06;;;;;;;2.30;1.53;;;21.60;99.90;;;;;;5026046;28;20582;-86
2023/08/01 04:45:35;;;;;;;1.50;1.37;;;21.50;99.90;;;;;;5030796;28;20179;-86
2023/08/01 04:48:04;;;;;;;2.87;1.80;;;21.60;99.90;;;;;;5028895;28;20176;-86
2023/08/01 04:50:39;;;;;;;3.53;1.80;;;21.60;99.90;;;;;;5031180;28;20171;-86
2023/08/01 04:53:20;;;;;;;3.00;1.73;;;21.60;99.90;;;;;;5060438;28;20179;-86
2023/08/01 04:55:52;;;;;;;2.50;1.60;;;21.50;99.90;;;;;;5045522;28;20267;-86
2023/08/01 04:58:17;;;;;;;3.30;1.83;;;21.60;99.90;;;;;;5031451;28;20208;-86
2023/08/01 05:00:43;;;;;;;3.97;1.90;;;21.60;99.90;;;;;;5032895;28;20202;-86
2023/08/01 05:03:18;;;;;;;1.80;1.70;;;21.60;99.90;;;;;;5048264;28;20200;-86
2023/08/01 05:05:43;;;;;;;2.60;1.73;;;21.60;99.90;;;;;;5045279;28;20203;-86
2023/08/01 05:08:27;;;;;;;2.43;1.80;;;21.60;99.90;;;;;;5029415;28;20192;-86
2023/08/01 05:10:53;;;;;;;2.37;1.60;;;21.60;99.90;;;;;;5026157;28;20176;-86
2023/08/01 05:13:19;;;;;;;2.27;1.87;;;21.60;99.90;;;;;;5035428;28;20219;-86
2023/08/01 05:15:47;;;;;;;2.70;2.00;;;21.60;99.90;;;;;;5023576;28;20188;-86
2023/08/01 05:18:20;;;;;;;3.30;1.77;;;21.60;99.90;;;;;;5022907;28;20245;-86
2023/08/01 05:20:51;;;;;;;3.60;2.50;;;21.60;99.90;;;;;;5021704;28;20183;-86
2023/08/01 05:23:19;;;;;;;2.27;1.97;;;21.60;99.90;;;;;;5024384;28;20184;-86
2023/08/01 05:25:45;;;;;;;3.27;2.03;;;21.60;99.90;;;;;;5023491;28;20252;-86
2023/08/01 05:28:11;;;;;;;2.83;2.20;;;21.60;99.90;;;;;;5024145;28;20184;-86
2023/08/01 05:30:40;;;;;;;2.37;1.90;;;21.60;99.90;;;;;;5023326;28;20429;-86
2023/08/01 05:33:06;;;;;;;3.30;2.27;;;21.60;99.90;;;;;;5021878;28;20181;-86
2023/08/01 05:35:35;;;;;;;2.20;2.00;;;21.60;99.90;;;;;;5037920;28;20236;-86
2023/08/01 05:38:19;;;;;;;2.23;1.83;;;21.60;99.90;;;;;;5041745;28;20457;-86
2023/08/01 05:40:44;;;;;;;3.00;1.90;;;21.50;99.90;;;;;;5019768;28;20555;-86
2023/08/01 05:43:10;;;;;;;2.40;2.00;;;21.60;99.90;;;;;;5025182;28;20651;-86
2023/08/01 05:45:36;;;;;;;3.07;2.00;;;21.60;99.90;;;;;;5025166;28;20202;-87
2023/08/01 05:48:02;;;;;;;3.17;1.87;;;21.60;99.90;;;;;;5026525;28;20176;-86
2023/08/01 05:50:28;;;;;;;3.37;1.70;;;21.60;99.90;;;;;;5022619;28;20195;-86
2023/08/01 05:52:55;;;;;;;3.37;1.80;;;21.60;99.90;;;;;;5025452;28;20187;-86
2023/08/01 05:55:21;;;;;;;2.57;2.03;;;21.60;99.90;;;;;;5022771;28;20283;-86
2023/08/01 05:57:52;;;;;;;2.53;1.97;;;21.60;99.90;;;;;;5021663;28;20291;-86
2023/08/01 06:00:21;;;;;;;3.17;2.07;;;21.60;99.90;;;;;;5020615;28;20196;-86
2023/08/01 06:02:56;;;;;;;2.37;2.10;;;21.50;99.90;;;;;;5027467;28;20176;-86
2023/08/01 06:05:21;;;;;;;4.10;2.20;;;21.50;99.90;;;;;;5024010;28;20276;-86
2023/08/01 06:07:50;;;;;;;3.43;2.60;;;21.60;99.90;;;;;;5040421;28;20184;-86
2023/08/01 06:10:16;;;;;;;3.83;2.40;;;21.60;99.90;;;;;;5020102;28;20528;-86
2023/08/01 06:12:44;;;;;;;7.53;3.13;;;21.60;99.90;;;;;;5018293;28;20267;-86
2023/08/01 06:15:40;;;;;;;3.87;2.93;;;21.70;99.90;;;;;;5022659;28;20231;-86
2023/08/01 06:18:10;;;;;;;5.07;3.43;;;21.70;99.90;;;;;;5016892;28;20331;-86
2023/08/01 06:20:36;;;;;;;7.90;3.40;;;21.70;99.90;;;;;;5038201;28;20235;-86
2023/08/01 06:23:20;;;;;;;7.83;3.70;;;21.70;99.90;;;;;;5020082;28;20258;-86
2023/08/01 06:25:46;;;;;;;7.67;3.60;;;21.70;99.90;;;;;;5021709;28;20203;-86
2023/08/01 06:28:12;;;;;;;8.13;3.23;;;21.70;99.90;;;;;;5022165;28;20581;-86
2023/08/01 06:30:40;;;;;;;6.97;3.43;;;21.70;99.90;;;;;;5015986;28;20461;-86
2023/08/01 06:33:06;;;;;;;8.13;4.00;;;21.70;99.90;;;;;;5019729;28;20392;-86
2023/08/01 06:35:34;;;;;;;4.63;3.70;;;21.70;99.90;;;;;;5020494;28;20176;-86
2023/08/01 06:38:18;;;;;;;6.57;3.87;;;21.70;99.90;;;;;;5013991;28;20388;-86
2023/08/01 06:40:44;;;;;;;7.23;3.63;;;21.70;99.90;;;;;;5035604;28;20211;-86
2023/08/01 06:43:09;;;;;;;5.70;3.97;;;21.70;99.90;;;;;;5032251;28;20432;-86
2023/08/01 06:45:38;;;;;;;6.13;4.40;;;21.70;99.90;;;;;;5020974;28;20181;-86
2023/08/01 06:48:07;;;;;;;7.70;4.07;;;21.80;99.90;;;;;;5015534;28;20176;-85
2023/08/01 06:50:32;;;;;;;6.73;4.20;;;21.90;99.90;;;;;;5032802;28;20184;-85
2023/08/01 06:53:01;;;;;;;6.77;3.93;;;21.90;99.90;;;;;;5018736;28;20185;-86
2023/08/01 06:55:27;;;;;;;6.63;3.93;;;21.80;99.90;;;;;;5016556;28;20475;-85
2023/08/01 06:57:53;;;;;;;6.27;4.40;;;21.80;99.90;;;;;;5018974;28;20191;-86
2023/08/01 07:00:22;;;;;;;9.77;4.50;;;21.80;99.90;;;;;;5019669;28;20184;-86
2023/08/01 07:02:47;;;;;;;5.83;3.90;;;21.80;99.90;;;;;;5019042;28;20312;-85
2023/08/01 07:05:23;;;;;;;8.27;4.40;;;21.90;99.90;;;;;;5037472;28;20308;-85
2023/08/01 07:07:52;;;;;;;6.10;4.20;;;21.90;99.90;;;;;;5017759;28;20398;-85
2023/08/01 07:10:26;;;;;;;5.73;4.47;;;21.90;99.90;;;;;;5019056;28;20180;-85
2023/08/01 07:13:05;;;;;;;6.93;4.30;;;21.90;99.90;;;;;;5018915;28;20454;-85
2023/08/01 07:15:34;;;;;;;7.83;4.20;;;21.90;99.90;;;;;;5025243;28;20370;-85
2023/08/01 07:18:00;;;;;;;5.73;4.20;;;21.80;99.90;;;;;;5019615;28;20196;-85
2023/08/01 07:20:32;;;;;;;7.80;4.23;;;21.80;99.90;;;;;;5016972;28;20568;-85
2023/08/01 07:23:12;;;;;;;5.47;3.93;;;21.80;99.90;;;;;;5021940;28;20180;-85
2023/08/01 07:25:41;;;;;;;5.93;4.60;;;21.80;99.90;;;;;;5030527;28;20307;-85
2023/08/01 07:28:06;;;;;;;7.00;4.10;;;21.80;99.90;;;;;;5032692;28;20183;-85
2023/08/01 07:30:32;;;;;;;5.77;4.50;;;21.80;99.90;;;;;;5020866;28;20173;-86
2023/08/01 07:33:07;;;;;;;6.43;4.33;;;21.90;99.90;;;;;;5024242;28;20220;-85
2023/08/01 07:35:38;;;;;;;5.77;4.43;;;21.90;99.90;;;;;;5032104;28;20570;-85
2023/08/01 07:38:07;;;;;;;6.40;4.40;;;22.00;99.90;;;;;;5017618;28;20176;-85
2023/08/01 07:40:45;;;;;;;9.00;4.93;;;21.90;99.90;;;;;;5018840;28;20186;-85
2023/08/01 07:43:20;;;;;;;5.33;4.33;;;21.90;99.90;;;;;;5034288;28;20396;-85
2023/08/01 07:45:55;;;;;;;6.70;4.20;;;21.90;99.90;;;;;;5019316;28;20202;-85
2023/08/01 07:48:23;;;;;;;6.00;4.30;;;21.90;99.90;;;;;;5018659;28;20535;-85
2023/08/01 07:50:52;;;;;;;5.13;4.27;;;22.00;99.90;;;;;;5017615;28;20188;-86
2023/08/01 07:53:32;;;;;;;9.13;3.97;;;22.00;99.90;;;;;;5016981;28;20353;-86
2023/08/01 07:55:58;;;;;;;4.73;4.10;;;22.10;99.90;;;;;;5028318;28;20807;-85
2023/08/01 07:58:24;;;;;;;5.90;4.40;;;22.20;99.90;;;;;;5028338;28;20185;-85
2023/08/01 08:00:53;;;;;;;5.43;4.10;;;22.20;99.90;;;;;;5023694;28;20268;-86
2023/08/01 08:03:23;;;;;;;4.83;4.00;;;22.20;99.90;;;;;;5053123;28;20180;-85
2023/08/01 08:06:11;;;;;;;8.30;4.57;;;22.10;99.90;;;;;;5043436;28;20180;-85
2023/08/01 08:08:37;;;;;;;5.37;3.77;;;22.10;99.90;;;;;;5028045;28;20192;-86
2023/08/01 08:11:09;;;;;;;5.87;4.20;;;22.10;99.90;;;;;;5042454;28;20172;-86
2023/08/01 08:13:38;;;;;;;5.50;4.10;;;22.10;99.90;;;;;;5014960;28;20246;-85
2023/08/01 08:16:05;;;;;;;4.40;3.70;;;22.10;99.90;;;;;;5038013;28;20190;-86
2023/08/01 08:18:34;;;;;;;4.67;4.13;;;22.10;99.90;;;;;;5022160;28;20183;-85
2023/08/01 08:20:59;;;;;;;6.37;4.23;;;22.10;99.90;;;;;;5020132;28;20279;-85
2023/08/01 08:23:25;;;;;;;5.00;3.73;;;22.10;99.90;;;;;;5014610;28;20271;-86
2023/08/01 08:25:53;;;;;;;6.03;3.80;;;22.30;99.90;;;;;;5035383;28;20188;-86
2023/08/01 08:28:29;;;;;;;5.87;3.80;;;22.40;99.90;;;;;;5014058;28;20216;-86
2023/08/01 08:31:01;;;;;;;5.30;3.50;;;22.60;99.90;;;;;;5021292;28;20189;-86
2023/08/01 08:33:34;;;;;;;5.07;3.90;;;22.90;99.90;;;;;;5026389;28;20177;-86
2023/08/01 08:36:03;;;;;;;5.70;3.60;;;23.00;99.90;;;;;;5048580;28;20224;-85
2023/08/01 08:38:28;;;;;;;4.40;3.87;;;23.00;99.90;;;;;;5012912;28;20216;-86
2023/08/01 08:41:15;;;;;;;6.07;4.00;;;23.00;99.90;;;;;;5032311;28;20220;-86
2023/08/01 08:43:41;;;;;;;5.53;3.60;;;23.00;99.90;;;;;;5021692;28;20738;-86
2023/08/01 08:46:15;;;;;;;6.80;4.03;;;23.00;99.90;;;;;;5036376;28;20195;-86
2023/08/01 08:48:46;;;;;;;5.47;3.90;;;22.90;99.90;;;;;;5031257;28;20208;-86
2023/08/01 08:51:12;;;;;;;4.13;3.50;;;22.90;99.90;;;;;;5041179;28;20217;-86
2023/08/01 08:53:40;;;;;;;6.27;3.93;;;22.90;99.90;;;;;;5034614;28;20194;-85
2023/08/01 08:56:30;;;;;;;4.43;3.43;;;22.90;99.90;;;;;;5016727;28;20249;-85
2023/08/01 08:58:59;;;;;;;6.00;3.73;;;23.00;99.90;;;;;;5030052;28;20271;-86
2023/08/01 09:01:26;;;;;;;4.00;3.27;;;22.90;99.90;;;;;;5014988;28;20478;-86
2023/08/01 09:03:58;;;;;;;5.93;4.00;;;22.90;99.90;;;;;;5031647;28;20216;-86
2023/08/01 09:06:32;;;;;;;4.80;3.50;;;22.80;99.90;;;;;;5032644;28;20222;-85
2023/08/01 09:09:14;;;;;;;4.57;3.63;;;22.70;99.90;;;;;;5017011;28;20184;-86
2023/08/01 09:11:52;;;;;;;6.27;3.53;;;22.70;99.90;;;;;;5018425;28;20458;-86
2023/08/01 09:14:24;;;;;;;5.90;3.40;;;22.70;99.90;;;;;;5012709;28;20448;-86
2023/08/01 09:17:10;;;;;;;5.83;3.70;;;22.70;99.90;;;;;;5026088;28;20238;-85
2023/08/01 09:19:39;;;;;;;5.47;3.63;;;22.80;99.90;;;;;;5018430;28;20663;-85
2023/08/01 09:22:17;;;;;;;5.13;3.43;;;22.80;99.90;;;;;;5036626;28;20203;-85
2023/08/01 09:25:14;;;;;;;4.07;3.35;;;22.90;99.90;;;;;;5021709;28;20340;-85
2023/08/01 09:27:59;;;;;;;4.45;3.20;;;23.00;99.90;;;;;;5026277;28;20601;-85
2023/08/01 09:30:39;;;;;;;5.85;3.60;;;23.00;99.90;;;;;;5015068;28;20211;-86
2023/08/01 09:33:08;;;;;;;4.30;3.42;;;23.20;99.60;;;;;;5035239;28;20183;-86
2023/08/01 09:35:39;;;;;;;5.22;3.63;;;23.30;99.60;;;;;;5033919;28;20203;-84
2023/08/01 09:38:04;;;;;;;5.03;3.42;;;23.50;99.30;;;;;;5038832;28;20285;-86
2023/08/01 09:40:40;;;;;;;4.30;3.28;;;23.50;99.10;;;;;;5019668;28;20619;-85
2023/08/01 09:43:15;;;;;;;6.57;3.30;;;23.60;98.70;;;;;;5016371;28;20325;-86
2023/08/01 09:45:56;;;;;;;5.88;3.67;;;23.50;98.90;;;;;;5018930;28;20200;-86
2023/08/01 09:48:26;;;;;;;5.80;3.70;;;23.40;99.40;;;;;;5018917;28;20185;-86
2023/08/01 09:51:13;;;;;;;4.93;3.35;;;23.40;99.60;;;;;;5016992;28;20235;-86
2023/08/01 09:53:52;;;;;;;6.22;3.25;;;23.50;99.20;;;;;;5014284;28;20553;-86
2023/08/01 09:56:28;;;;;;;7.18;4.00;;;23.50;99.30;;;;;;5016142;28;20586;-86
2023/08/01 09:58:59;;;;;;;4.88;3.47;;;23.50;99.40;;;;;;5018951;28;20350;-86
2023/08/01 10:01:26;;;;;;;4.67;3.30;;;23.70;98.90;;;;;;5013710;28;20188;-87
2023/08/01 10:04:05;;;;;;;4.97;3.20;;;23.70;98.90;;;;;;5036218;28;20192;-86
2023/08/01 10:06:33;;;;;;;4.07;3.07;;;23.70;98.90;;;;;;5016389;28;20426;-87
2023/08/01 10:09:17;;;;;;;5.50;3.33;;;23.90;98.50;;;;;;5035550;28;20196;-87
2023/08/01 10:11:44;;;;;;;4.97;3.20;;;24.00;98.00;;;;;;5015432;28;20173;-86
2023/08/01 10:14:13;;;;;;;6.10;3.17;;;24.00;97.80;;;;;;5018824;28;20187;-86
2023/08/01 10:16:43;;;;;;;6.87;3.43;;;23.90;97.90;;;;;;5017849;28;20176;-87
2023/08/01 10:19:12;;;;;;;4.63;2.83;;;23.80;98.00;;;;;;5035357;28;20189;-86
2023/08/01 10:21:57;;;;;;;4.23;3.20;;;23.70;98.20;;;;;;5019047;28;20709;-86
2023/08/01 10:24:37;;;;;;;4.63;3.07;;;23.70;98.40;;;;;;5014885;28;20258;-86
2023/08/01 10:27:30;;;;;;;4.70;3.17;;;23.80;98.20;;;;;;5015245;28;20329;-86
2023/08/01 10:32:44;;;;;;;4.43;2.83;;;23.90;97.80;;;;;;5035712;28;20180;-86
2023/08/01 10:35:10;;;;;;;7.00;3.40;;;24.00;97.60;;;;;;5033748;28;20181;-86
2023/08/01 10:37:49;;;;;;;5.50;3.00;;;24.00;97.50;;;;;;5016992;28;20339;-86
2023/08/01 10:40:14;;;;;;;3.93;2.70;;;24.10;97.50;;;;;;5022284;28;20191;-86
2023/08/01 10:42:44;;;;;;;3.90;2.57;;;23.90;97.50;;;;;;5016920;28;20208;-86
2023/08/01 10:45:21;;;;;;;5.03;3.00;;;23.90;97.70;;;;;;5018731;28;20400;-86
2023/08/01 10:47:47;;;;;;;4.53;3.00;;;23.90;97.60;;;;;;5013854;28;20192;-86
2023/08/01 10:50:31;;;;;;;3.87;2.77;;;24.00;97.50;;;;;;5023781;28;20185;-86
2023/08/01 10:53:12;;;;;;;4.30;2.83;;;24.10;97.40;;;;;;5014349;28;20195;-86
2023/08/01 10:55:48;;;;;;;4.30;3.03;;;24.00;97.50;;;;;;5015096;28;20191;-86
2023/08/01 10:58:18;;;;;;;4.67;2.73;;;24.00;97.50;;;;;;5017185;28;20188;-86
2023/08/01 11:01:12;;;;;;;7.57;2.70;;;24.00;97.90;;;;;;5016007;28;20446;-86
2023/08/01 11:03:39;;;;;;;4.13;3.00;;;24.00;97.60;;;;;;5032764;28;20212;-86
2023/08/01 11:06:05;;;;;;;4.33;2.87;;;23.90;98.20;;;;;;5016394;28;20261;-86
2023/08/01 11:08:38;;;;;;;4.73;3.00;;;23.80;98.20;;;;;;5015107;28;20181;-86
2023/08/01 11:11:11;;;;;;;3.50;2.90;;;23.60;98.70;;;;;;5012511;28;20277;-87
2023/08/01 11:13:50;;;;;;;3.43;2.90;;;23.50;99.30;;;;;;5015724;28;20189;-87
2023/08/01 11:16:19;;;;;;;4.03;3.10;;;23.50;99.30;;;;;;5032266;28;20346;-86
2023/08/01 11:18:48;;;;;;;4.90;2.90;;;23.50;99.20;;;;;;5006343;28;20377;-86
2023/08/01 11:21:27;;;;;;;5.13;2.73;;;23.40;99.20;;;;;;5015705;28;20192;-86
2023/08/01 11:24:09;;;;;;;5.67;2.73;;;23.20;99.50;;;;;;5029112;28;20541;-86
2023/08/01 11:26:35;;;;;;;3.80;2.70;;;23.40;99.50;;;;;;5019955;28;20219;-86
2023/08/01 11:29:04;;;;;;;3.73;2.50;;;23.40;99.20;;;;;;5030644;28;20180;-86
2023/08/01 11:31:33;;;;;;;4.73;2.70;;;23.40;99.30;;;;;;5012383;28;20189;-86
2023/08/01 11:33:59;;;;;;;3.87;2.70;;;23.40;99.20;;;;;;5019475;28;20200;-86
2023/08/01 11:36:27;;;;;;;3.60;2.50;;;23.40;99.20;;;;;;5016370;28;20313;-86
2023/08/01 11:39:11;;;;;;;3.10;2.40;;;23.40;99.30;;;;;;5032180;28;20566;-86
2023/08/01 11:41:50;;;;;;;5.67;2.57;;;23.40;99.30;;;;;;5018037;28;20636;-86
2023/08/01 11:44:24;;;;;;;4.20;2.87;;;23.30;99.50;;;;;;5032305;28;20219;-86
2023/08/01 11:46:59;;;;;;;4.37;2.70;;;23.30;99.50;;;;;;5013879;28;20177;-86
2023/08/01 11:49:26;;;;;;;3.97;2.87;;;23.30;99.50;;;;;;5016436;28;20273;-87
2023/08/01 11:51:51;;;;;;;4.20;2.50;;;23.30;99.50;;;;;;5034163;28;20172;-85
2023/08/01 11:54:21;;;;;;;3.20;2.40;;;23.20;99.40;;;;;;5030097;28;20181;-86
2023/08/01 11:57:00;;;;;;;4.23;2.60;;;23.30;99.50;;;;;;5012911;28;20214;-86
2023/08/01 11:59:32;;;;;;;3.93;3.03;;;23.30;99.40;;;;;;5013759;28;20322;-87
2023/08/01 12:02:00;;;;;;;4.27;2.57;;;23.30;99.50;;;;;;5016653;28;20188;-87
2023/08/01 12:04:30;;;;;;;4.67;2.70;;;23.20;99.50;;;;;;5015756;28;20224;-87
2023/08/01 12:06:56;;;;;;;3.67;2.50;;;23.20;99.40;;;;;;5015249;28;20184;-87
2023/08/01 12:09:21;;;;;;;3.87;2.60;;;23.20;99.40;;;;;;5018570;28;20566;-87
2023/08/01 12:12:04;;;;;;;4.27;2.67;;;23.30;99.50;;;;;;5020226;28;20283;-87
2023/08/01 12:14:29;;;;;;;2.77;2.57;;;23.30;99.40;;;;;;5016788;28;20329;-87
2023/08/01 12:16:58;;;;;;;3.93;2.40;;;23.30;99.50;;;;;;5010973;28;20184;-87
2023/08/01 12:19:26;;;;;;;4.53;2.53;;;23.30;99.30;;;;;;5013786;28;20437;-87
2023/08/01 12:21:51;;;;;;;3.50;2.20;;;23.30;99.50;;;;;;5012550;28;20197;-87
2023/08/01 12:24:17;;;;;;;4.03;2.63;;;23.20;99.40;;;;;;5033229;28;20289;-87
2023/08/01 12:26:43;;;;;;;4.23;2.37;;;23.20;99.40;;;;;;5024743;28;20373;-87
2023/08/01 12:29:10;;;;;;;2.37;2.07;;;23.20;99.50;;;;;;5016298;28;20455;-87
2023/08/01 12:31:35;;;;;;;3.63;2.50;;;23.20;99.60;;;;;;5014560;28;20200;-87
2023/08/01 12:34:04;;;;;;;3.73;2.40;;;23.20;99.50;;;;;;5013796;28;20184;-87
2023/08/01 12:36:33;;;;;;;3.37;2.40;;;23.20;99.50;;;;;;5015338;28;20183;-87
2023/08/01 12:39:01;;;;;;;2.87;2.43;;;23.20;99.40;;;;;;5021245;28;20172;-86
2023/08/01 12:41:27;;;;;;;3.40;2.47;;;23.20;99.40;;;;;;5015680;28;20287;-87
2023/08/01 12:43:55;;;;;;;3.50;2.50;;;23.20;99.40;;;;;;5017846;28;20709;-87
2023/08/01 12:46:21;;;;;;;3.23;2.30;;;23.20;99.50;;;;;;5015441;28;21111;-86
2023/08/01 12:48:49;;;;;;;2.73;2.33;;;23.30;99.30;;;;;;5015897;28;20440;-87
2023/08/01 12:51:15;;;;;;;2.63;2.30;;;23.30;99.20;;;;;;5018979;28;20271;-87
2023/08/01 12:53:53;;;;;;;3.20;2.53;;;23.30;99.50;;;;;;5018457;28;20578;-87
2023/08/01 12:56:19;;;;;;;4.20;2.50;;;23.30;99.30;;;;;;5014716;28;20196;-87
2023/08/01 12:58:47;;;;;;;4.30;2.57;;;23.30;99.30;;;;;;5013908;28;20192;-86
2023/08/01 13:01:13;;;;;;;3.37;2.37;;;23.30;99.90;;;;;;5017053;28;20372;-86
2023/08/01 13:03:41;;;;;;;3.80;2.17;;;23.30;99.50;;;;;;5031829;28;20575;-86
2023/08/01 13:06:22;;;;;;;2.40;2.13;;;23.40;99.50;;;;;;5016014;28;20618;-86
2023/08/01 13:08:50;;;;;;;3.90;2.50;;;23.40;99.50;;;;;;5016210;28;20180;-86
2023/08/01 13:11:19;;;;;;;5.77;2.60;;;23.30;99.50;;;;;;5015689;28;20585;-87
2023/08/01 13:13:51;;;;;;;2.80;2.07;;;23.40;99.20;;;;;;5013166;28;20184;-86
2023/08/01 13:16:17;;;;;;;3.90;2.40;;;23.40;99.00;;;;;;5014425;28;20183;-86
2023/08/01 13:18:47;;;;;;;4.73;2.03;;;23.40;99.30;;;;;;5032731;28;20339;-86
2023/08/01 13:21:16;;;;;;;2.73;2.00;;;23.40;99.30;;;;;;5018033;28;20484;-86
2023/08/01 13:23:42;;;;;;;3.30;2.30;;;23.40;99.40;;;;;;5018619;28;20680;-86
2023/08/01 13:26:17;;;;;;;4.33;2.40;;;23.40;99.40;;;;;;5019898;28;20188;-86
2023/08/01 13:28:42;;;;;;;3.20;2.40;;;23.30;99.50;;;;;;5018303;28;20176;-87